Friday, May 27, 2016
14:15 UTC
  |  Log In   |  Register Free
Airport Search:

Julian Carroll Airport
(KJKL)

Julian Carroll Airport Diagram
No Airport Diagram Available

FAA data valid effective Mar 31 2016 - May 26 2016 (unless otherwise noted).

 
 
 
 
 
 
 
 
 
 
 
 
 
 
Current Aviation Weather for KJKL

Weather Summary


The most recent METAR observation for JKL was updated at: 12:53 UTC
METAR for KJKL is not available. Closest METAR is for KSJS
KJKL  (most recent observation was updatred at 27:13 UTC)
271353Z AUTO VRB04KT 10SM CLR 23/18 A3011 RMK AO2 SLP184 T02330178

KSJS  (33.7 nm SW)   (most recent observation was updated at 27:13 UTC)
271355Z AUTO 22005KT 10SM CLR 24/18 A3011 RMK AO2 T02400181

TAF for KJKL is not available.
KJKL
271134Z 2712/2812 17003KT P6SM BKN080 FM271300 19003KT P6SM SCT060 FM271900 19004KT P6SM VCTS SCT050CB FM280100 18003KT P6SM BKN130 BKN250

KSJS  (33.7 nm SW)   (most recent observation was updatred at 27:11 UTC)
271134Z 2712/2812 17003KT P6SM BKN080 FM271300 19003KT P6SM SCT060 FM271900 19004KT P6SM VCTS SCT050CB FM280100 18003KT P6SM BKN130 BKN250 AMD NOT SKED
GlobalAir.com is loading additional information.
 Current Weather at JKL
71.0 F° (21.7 C°)

Variable winds at 3.5 mph
Pressure:
30.11 in
Humidity:
73%
Wind:
Variable at 3.5 mph
Dew Point:
62.1 F° (16.7 C°)
Visibility:
10.00 mi
JKL NOAA Radar




Find All Airport Services Find A Hotel Find A Rental Car Find A Golf Course Find A Restaurant $100 Hamburger



Airport Weather Forecast for KJKL

Translated METAR for KJKL (1353 UTC)
METAR:
KJKL 271353Z AUTO VRB04KT 10SM CLR 23/18 A3011 RMK AO2 SLP184 T02330178
Conditions at:
KJKL (Julian Carroll, KY) observed 1353 UTC 27 May 2016
Temperature:
23°C (73.4°F)
Dewpoint:
18°C (64.4°F) [RH = 73.5]
Pressure:
30.11 inches Hg (1019.6 mb)
pressure at sea level is 184 in Hg
Winds:
variable wind direction at 4.6 mph (4 knots: 2.1 m/s)
Visibility:
10 mile(s)
Ceiling:
at least 12,000 feet AGL
Clouds:
Clear below 12,000 feet AGL
Remarks:
site is un-manned
site is automated and HAS a precipitation sensor

Translated TAF for KJKL (Julian Carroll, KY) (1134 UTC)
TAF text:
KJKL 271134Z 2712/2812 17003KT P6SM BKN080
Forecast period:
Friday May 27 2016 12:00 UTC - Saturday May 28 2016 12:00 UTC
Forecast type:
FROM: standard forecast or significant change
Winds:
from the S (170 degrees) at 3.5 mph (3 knots: 1.5 m/s)
Visibility:
6 or more mile(s) (9.7+ km)
Ceiling:
8,000 feet AGL
Clouds:
Broken Cloud Cover at 8,000 feet AGL
Weather:
no significant weather observed at this time
TAF text:
FM271300 19003KT P6SM SCT060
Forecast period:
Friday May 27 2016 13:00 UTC - Friday May 27 2016 19:00 UTC
Forecast type:
FROM: standard forecast or significant change
Winds:
from the S (190 degrees) at 3.5 mph (3 knots: 1.5 m/s)
Visibility:
6 or more mile(s) (9.7+ km)
Ceiling:
at least 12,000 feet AGL
Clouds:
Scattered Clouds at 6,000 feet AGL
Weather:
no significant weather observed at this time
TAF text:
FM271900 19004KT P6SM VCTS SCT050CB
Forecast period:
Friday May 27 2016 19:00 UTC - Saturday May 28 2016 01:00 UTC
Forecast type:
FROM: standard forecast or significant change
Winds:
from the S (190 degrees) at 4.6 mph (4 knots: 2.1 m/s)
Visibility:
6 or more mile(s) (9.7+ km)
Ceiling:
Clouds:
Weather:
Moderate In Vicinity Thunderstorm
TAF text:
FM280100 18003KT P6SM BKN130 BKN250
Forecast period:
Saturday May 28 2016 01:00 UTC - Saturday May 28 2016 12:00 UTC
Forecast type:
FROM: standard forecast or significant change
Winds:
from the S (180 degrees) at 3.5 mph (3 knots: 1.5 m/s)
Visibility:
6 or more mile(s) (9.7+ km)
Ceiling:
13,000 feet AGL
Clouds:
Broken Cloud Cover at 13,000 feet AGL
Broken Cloud Cover at 25,000 feet AGL
Weather:
no significant weather observed at this time
FBO's on the Field
FBO Company Facility Photos Services Transportation Aviation Fuel Prices: Prices include tax
Catering Weather Repair Courtesy Rental Type 100LL JetA JetA+ MOGAS 8087
 
Add another FBO Facility Photos Catering Weather Repair Courtesy Rental Type 100LL JetA JetA+ MOGAS 8087
Services Transportation Aviation Fuel Prices: Prices include tax
There are no FBO's currently reporting fuel at JKL. List your FBO now


model-print
model-print
model-print
model-print